Time;durP1;ratioP1;P1;durP2;ratioP2;P2;SDS_P1;SDS_P2;PMS_P1;PMS_P2;Temp;Humidity;BMP_temperature;BMP_pressure;BME280_temperature;BME280_humidity;BME280_pressure;Samples;Min_cycle;Max_cycle;Signal;HPM_P1;HPM_P2
2022/04/20 00:03:38;;;;;;;19.27;12.43;;;10.60;80.40;;;;;;10329384;28;20706;-83
2022/04/20 00:08:41;;;;;;;20.47;13.13;;;10.20;78.10;;;;;;10290872;28;20237;-83
2022/04/20 00:13:43;;;;;;;9.23;6.80;;;11.40;78.20;;;;;;10303623;28;20269;-83
2022/04/20 00:18:45;;;;;;;9.17;6.90;;;12.40;77.40;;;;;;10302158;28;20241;-83
2022/04/20 00:23:48;;;;;;;6.87;5.83;;;11.40;80.50;;;;;;10304508;28;20704;-83
2022/04/20 00:28:51;;;;;;;8.27;6.03;;;12.70;76.50;;;;;;10313384;28;20241;-83
2022/04/20 00:33:53;;;;;;;11.93;8.03;;;12.80;74.30;;;;;;10306609;28;20260;-83
2022/04/20 00:38:56;;;;;;;8.20;6.57;;;12.80;73.00;;;;;;10329073;28;20256;-83
2022/04/20 00:43:59;;;;;;;8.60;6.30;;;12.60;74.90;;;;;;10312794;28;20594;-83
2022/04/20 00:49:02;;;;;;;10.30;7.43;;;13.10;73.80;;;;;;10275333;28;20617;-83
2022/04/20 00:54:05;;;;;;;7.57;6.00;;;13.30;72.40;;;;;;10307702;28;20228;-83
2022/04/20 00:59:08;;;;;;;7.40;5.90;;;13.50;72.90;;;;;;10329756;28;20461;-83
2022/04/20 01:04:11;;;;;;;5.77;5.27;;;13.70;72.30;;;;;;10297521;28;20611;-83
2022/04/20 01:09:32;;;;;;;16.27;12.00;;;13.20;73.40;;;;;;10339442;28;20259;-83
2022/04/20 01:14:51;;;;;;;13.27;10.77;;;11.40;74.20;;;;;;10286555;28;20233;-83
2022/04/20 01:20:14;;;;;;;12.70;9.50;;;10.30;78.80;;;;;;10244722;28;20245;-83
2022/04/20 01:25:44;;;;;;;13.20;8.83;;;9.80;83.40;;;;;;10275790;28;20212;-83
2022/04/20 01:30:55;;;;;;;9.10;8.13;;;9.30;87.40;;;;;;10283261;28;20296;-83
2022/04/20 01:36:27;;;;;;;13.40;9.53;;;10.60;84.60;;;;;;10271384;28;20288;-83
2022/04/20 01:41:30;;;;;;;8.60;7.13;;;10.10;85.10;;;;;;10291629;28;20683;-83
2022/04/20 01:46:33;;;;;;;6.73;5.10;;;10.00;89.00;;;;;;10269578;28;20577;-83
2022/04/20 01:51:50;;;;;;;7.27;6.13;;;10.00;90.00;;;;;;10294867;28;20312;-83
2022/04/20 01:57:07;;;;;;;8.00;6.90;;;10.40;88.30;;;;;;10281738;28;20224;-83
2022/04/20 02:02:34;;;;;;;7.37;5.63;;;11.40;83.40;;;;;;10289831;28;20236;-83
2022/04/20 02:08:07;;;;;;;10.87;8.00;;;11.50;82.50;;;;;;10270144;28;20241;-83
2022/04/20 02:13:30;;;;;;;9.33;7.07;;;11.80;82.50;;;;;;10270231;28;20805;-83
2022/04/20 02:18:36;;;;;;;10.53;7.77;;;10.40;88.50;;;;;;10271050;28;20239;-83
2022/04/20 02:23:57;;;;;;;6.93;6.13;;;9.80;91.60;;;;;;10320039;28;20698;-83
2022/04/20 02:29:00;;;;;;;12.90;8.27;;;9.40;92.90;;;;;;10269576;28;20248;-83
2022/04/20 02:34:02;;;;;;;6.63;5.40;;;10.00;91.80;;;;;;10289288;28;20263;-83
2022/04/20 02:39:06;;;;;;;8.20;7.37;;;11.10;87.70;;;;;;10331314;28;20209;-83
2022/04/20 02:44:08;;;;;;;9.90;8.10;;;10.50;90.40;;;;;;10304985;28;20290;-83
2022/04/20 02:49:11;;;;;;;12.80;8.83;;;10.30;91.20;;;;;;10332542;28;20314;-83
2022/04/20 02:54:13;;;;;;;5.67;5.07;;;9.40;94.10;;;;;;10296513;28;20257;-83
2022/04/20 02:59:16;;;;;;;6.47;4.87;;;10.10;92.70;;;;;;10276039;28;20237;-83
2022/04/20 03:04:19;;;;;;;10.17;7.57;;;11.40;87.80;;;;;;10300602;28;20635;-83
2022/04/20 03:09:22;;;;;;;11.10;9.07;;;9.40;94.50;;;;;;10259479;28;20271;-83
2022/04/20 03:14:25;;;;;;;10.63;8.60;;;8.80;97.00;;;;;;10277392;28;20252;-83
2022/04/20 03:19:33;;;;;;;12.07;8.63;;;8.70;98.80;;;;;;10315456;28;20207;-83
2022/04/20 03:24:35;;;;;;;12.50;9.50;;;8.40;99.80;;;;;;10306145;28;20235;-82
2022/04/20 03:30:17;;;;;;;10.90;7.87;;;8.70;98.90;;;;;;10137245;29;20258;-83
2022/04/20 03:35:19;;;;;;;10.10;6.57;;;8.60;99.60;;;;;;10141779;29;20250;-83
2022/04/20 03:40:22;;;;;;;13.77;9.87;;;10.00;94.80;;;;;;10138539;29;20211;-82
2022/04/20 03:45:25;;;;;;;12.83;9.50;;;9.00;97.00;;;;;;10132041;29;20308;-82
2022/04/20 03:50:28;;;;;;;9.40;6.70;;;8.90;98.40;;;;;;10116225;29;20274;-82
2022/04/20 03:55:30;;;;;;;5.47;4.33;;;8.80;98.40;;;;;;10113804;29;20452;-82
2022/04/20 04:00:33;;;;;;;8.67;6.20;;;10.60;94.00;;;;;;10207729;28;20692;-83
2022/04/20 04:05:37;;;;;;;10.67;8.27;;;9.00;98.20;;;;;;10273763;28;20653;-83
2022/04/20 04:10:51;;;;;;;9.40;6.83;;;8.40;99.90;;;;;;10265768;28;20310;-83
2022/04/20 04:15:54;;;;;;;11.80;8.57;;;8.50;99.90;;;;;;10248190;28;20242;-83
2022/04/20 04:20:59;;;;;;;8.33;7.17;;;8.20;99.90;;;;;;10237571;28;20706;-83
2022/04/20 04:26:02;;;;;;;7.73;5.30;;;8.50;99.30;;;;;;10234927;28;20311;-84
2022/04/20 04:31:11;;;;;;;8.13;7.10;;;10.00;95.60;;;;;;10251220;28;20332;-83
2022/04/20 04:36:15;;;;;;;5.50;4.67;;;10.10;93.60;;;;;;10249656;28;20293;-83
2022/04/20 04:41:26;;;;;;;10.10;7.13;;;9.50;96.60;;;;;;10246816;28;20240;-83
2022/04/20 04:52:00;;;;;;;10.33;7.17;;;9.00;96.10;;;;;;10270287;28;20269;-83
2022/04/20 04:57:03;;;;;;;7.60;6.30;;;9.90;93.30;;;;;;10278923;28;20248;-83
2022/04/20 05:02:08;;;;;;;7.17;6.03;;;9.70;93.10;;;;;;10293976;28;20272;-83
2022/04/20 05:07:11;;;;;;;6.70;5.43;;;9.00;96.90;;;;;;10305141;28;20642;-82
2022/04/20 05:12:14;;;;;;;17.93;7.23;;;9.50;94.30;;;;;;10305154;28;20320;-83
2022/04/20 05:17:18;;;;;;;13.80;6.90;;;9.50;94.00;;;;;;10271456;28;20349;-83
2022/04/20 05:22:21;;;;;;;10.80;7.10;;;9.00;97.40;;;;;;10309159;28;20243;-83
2022/04/20 05:27:24;;;;;;;10.57;6.00;;;8.70;98.60;;;;;;10303614;28;20216;-83
2022/04/20 05:32:36;;;;;;;10.27;6.63;;;9.20;97.80;;;;;;10309442;28;20695;-84
2022/04/20 05:43:29;;;;;;;6.27;5.63;;;8.80;99.90;;;;;;10300932;28;20675;-83
2022/04/20 05:48:33;;;;;;;11.80;7.83;;;9.00;99.90;;;;;;10294593;28;20219;-84
2022/04/20 05:53:37;;;;;;;12.53;8.20;;;10.40;97.00;;;;;;10310035;28;20259;-84
2022/04/20 05:58:40;;;;;;;9.73;7.07;;;9.40;97.50;;;;;;10294287;28;20216;-84
2022/04/20 06:03:43;;;;;;;9.80;8.10;;;9.40;99.90;;;;;;10326180;28;20271;-84
2022/04/20 06:08:57;;;;;;;11.67;8.23;;;8.80;99.90;;;;;;10324483;28;20301;-84
2022/04/20 06:14:27;;;;;;;6.20;5.13;;;;;;;;;;10300599;28;20324;-84
2022/04/20 06:19:40;;;;;;;7.37;6.30;;;8.70;99.90;;;;;;10309571;28;20262;-83
2022/04/20 06:24:54;;;;;;;10.27;7.60;;;9.00;99.90;;;;;;10308161;28;20628;-83
2022/04/20 06:30:08;;;;;;;11.60;8.23;;;9.00;99.90;;;;;;10286007;28;20288;-83
2022/04/20 06:35:29;;;;;;;8.63;7.10;;;8.90;99.90;;;;;;10328208;28;20627;-83
2022/04/20 06:40:52;;;;;;;10.73;8.13;;;9.30;99.90;;;;;;10315686;28;20304;-83
2022/04/20 06:45:58;;;;;;;10.00;7.40;;;7.70;99.90;;;;;;10317930;28;20242;-83
2022/04/20 06:51:17;;;;;;;4.27;3.87;;;7.90;99.90;;;;;;10307230;28;20260;-83
2022/04/20 07:01:55;;;;;;;7.30;6.43;;;9.00;99.90;;;;;;10308360;28;20243;-83
2022/04/20 07:07:11;;;;;;;5.70;4.83;;;9.90;99.90;;;;;;10294226;28;20240;-83
2022/04/20 07:12:45;;;;;;;4.97;4.27;;;9.70;99.90;;;;;;10202672;29;20301;-83
2022/04/20 07:17:48;;;;;;;5.03;3.70;;;9.60;99.90;;;;;;10202087;29;20296;-83
2022/04/20 07:23:20;;;;;;;11.43;7.37;;;10.40;99.20;;;;;;10202063;29;20822;-83
2022/04/20 07:28:28;;;;;;;5.50;3.70;;;9.40;99.90;;;;;;10191558;29;20309;-82
2022/04/20 07:34:09;;;;;;;4.60;4.10;;;10.70;98.20;;;;;;10053350;29;20265;-84
2022/04/20 07:39:30;;;;;;;5.87;4.97;;;10.80;96.10;;;;;;10036536;29;20647;-84
2022/04/20 07:44:56;;;;;;;4.07;3.17;;;10.80;96.10;;;;;;10056540;29;20931;-84
2022/04/20 07:50:25;;;;;;;4.73;4.13;;;10.70;97.30;;;;;;10089083;29;20312;-84
2022/04/20 07:55:57;;;;;;;13.60;5.37;;;12.40;92.20;;;;;;10165040;29;20278;-91
2022/04/20 08:01:20;;;;;;;5.53;4.53;;;11.90;93.30;;;;;;10190239;29;20767;-91
2022/04/20 08:06:37;;;;;;;4.73;4.17;;;13.20;90.30;;;;;;10281908;23;655340;-78
2022/04/20 08:11:40;;;;;;;4.70;4.20;;;13.30;88.30;;;;;;10311067;28;20318;-79
2022/04/20 08:16:48;;;;;;;9.47;5.33;;;13.50;90.70;;;;;;10318902;28;20237;-79
2022/04/20 08:22:04;;;;;;;9.40;4.97;;;10.60;98.30;;;;;;10301391;28;20245;-79
2022/04/20 08:27:07;;;;;;;4.40;4.00;;;11.80;99.90;;;;;;10295740;28;20244;-79
2022/04/20 08:32:09;;;;;;;5.97;4.13;;;13.40;99.90;;;;;;10308253;28;20256;-78
2022/04/20 08:37:12;;;;;;;6.00;3.80;;;14.40;99.90;;;;;;10326953;28;20233;-78
2022/04/20 08:42:19;;;;;;;5.27;4.20;;;14.90;99.90;;;;;;10308597;28;20238;-78
2022/04/20 08:47:23;;;;;;;4.83;4.13;;;15.30;99.90;;;;;;10282022;28;20280;-78
2022/04/20 08:52:38;;;;;;;4.10;3.30;;;15.70;99.90;;;;;;10272001;28;20253;-78
2022/04/20 08:57:45;;;;;;;5.83;4.00;;;15.50;99.90;;;;;;10306767;28;20315;-78
2022/04/20 09:02:57;;;;;;;4.10;3.27;;;16.30;99.90;;;;;;10304336;28;20656;-79
2022/04/20 09:08:11;;;;;;;5.53;3.83;;;16.40;99.90;;;;;;10302371;28;20237;-79
2022/04/20 09:13:14;;;;;;;4.33;3.80;;;16.60;99.90;;;;;;10309666;28;20714;-79
2022/04/20 09:18:19;;;;;;;4.93;4.20;;;16.60;99.90;;;;;;10325821;28;20260;-78
2022/04/20 09:23:27;;;;;;;4.93;4.40;;;16.80;99.90;;;;;;10310219;28;20645;-79
2022/04/20 09:28:29;;;;;;;5.30;3.60;;;16.60;99.90;;;;;;10328898;28;20244;-78
2022/04/20 09:33:45;;;;;;;4.43;4.03;;;16.80;99.90;;;;;;10310818;28;20307;-78
2022/04/20 09:39:03;;;;;;;4.30;3.90;;;16.70;99.90;;;;;;10325823;28;20223;-78
2022/04/20 09:44:10;;;;;;;4.30;3.83;;;16.80;99.90;;;;;;10327619;28;20268;-78
2022/04/20 09:49:12;;;;;;;4.70;4.30;;;16.80;99.90;;;;;;10328112;28;20666;-78
2022/04/20 09:54:29;;;;;;;4.13;3.73;;;16.80;99.90;;;;;;10325708;28;20293;-78
2022/04/20 09:59:32;;;;;;;5.20;4.17;;;16.80;99.90;;;;;;10308557;28;20248;-78
2022/04/20 10:04:34;;;;;;;6.33;4.03;;;16.70;99.90;;;;;;10280287;28;20269;-78
2022/04/20 10:09:37;;;;;;;5.00;4.17;;;16.50;99.90;;;;;;10291431;28;20247;-79
2022/04/20 10:20:04;;;;;;;8.47;6.07;;;9.10;99.90;;;;;;10326446;28;20240;-78
2022/04/20 10:25:08;;;;;;;12.03;7.80;;;8.90;99.90;;;;;;10342141;28;20227;-79
2022/04/20 10:30:20;;;;;;;10.57;6.97;;;14.00;99.90;;;;;;10287202;28;20276;-79
2022/04/20 10:35:22;;;;;;;10.17;6.53;;;14.20;99.90;;;;;;10288242;28;20252;-80
2022/04/20 10:40:59;;;;;;;9.17;5.93;;;15.10;99.90;;;;;;10308940;28;20240;-80
2022/04/20 10:46:11;;;;;;;10.93;7.63;;;12.10;99.90;;;;;;10302436;28;20373;-81
2022/04/20 10:51:22;;;;;;;10.03;6.70;;;12.80;99.90;;;;;;10277874;28;20329;-80
2022/04/20 10:56:25;;;;;;;15.03;7.87;;;10.50;99.90;;;;;;10312591;28;20265;-80
2022/04/20 11:01:27;;;;;;;9.70;6.80;;;10.50;99.90;;;;;;10293316;28;20268;-80
2022/04/20 11:06:59;;;;;;;8.53;6.97;;;11.80;99.90;;;;;;10292361;28;20320;-80
2022/04/20 11:23:06;;;;;;;5.87;5.33;;;15.20;99.90;;;;;;10276024;28;20241;-79
2022/04/20 11:28:09;;;;;;;6.47;5.50;;;16.10;99.90;;;;;;10293403;28;20299;-79
2022/04/20 11:33:15;;;;;;;7.10;5.37;;;15.70;99.90;;;;;;10305463;28;20723;-78
2022/04/20 11:38:18;;;;;;;8.07;5.23;;;15.60;99.90;;;;;;10314945;28;20238;-78
2022/04/20 11:43:26;;;;;;;7.60;5.23;;;10.90;99.90;;;;;;10329887;28;20241;-79
2022/04/20 11:48:57;;;;;;;7.33;5.83;;;10.50;99.90;;;;;;10311052;28;20236;-79
2022/04/20 11:54:18;;;;;;;7.20;5.80;;;13.90;99.90;;;;;;10308874;28;20337;-79
2022/04/20 11:59:46;;;;;;;6.43;5.50;;;14.10;99.90;;;;;;10313083;28;20205;-77
2022/04/20 12:04:48;;;;;;;7.40;5.00;;;14.50;99.90;;;;;;10310821;28;21084;-78
2022/04/20 12:09:54;;;;;;;6.63;5.50;;;14.00;99.90;;;;;;10300798;28;20275;-78
2022/04/20 12:15:08;;;;;;;6.40;5.23;;;14.90;99.90;;;;;;10299182;28;20303;-77
2022/04/20 12:20:12;;;;;;;7.30;5.40;;;14.80;99.90;;;;;;10290985;28;20678;-79
2022/04/20 12:25:19;;;;;;;5.27;4.77;;;13.70;99.90;;;;;;10299200;28;20239;-78
2022/04/20 12:30:49;;;;;;;12.90;7.93;;;14.30;99.90;;;;;;10282266;28;20233;-77
2022/04/20 12:36:08;;;;;;;11.93;7.53;;;14.70;99.90;;;;;;10229760;28;20728;-80
2022/04/20 12:41:45;;;;;;;7.07;5.63;;;14.90;99.10;;;;;;10192593;29;20291;-80
2022/04/20 12:46:47;;;;;;;11.13;7.77;;;15.30;99.90;;;;;;10230866;28;20286;-81
2022/04/20 12:51:50;;;;;;;9.50;6.97;;;14.50;99.90;;;;;;10230509;29;20661;-79
2022/04/20 13:02:14;;;;;;;15.37;9.00;;;14.00;99.90;;;;;;10231375;28;20266;-77
2022/04/20 13:07:17;;;;;;;8.80;7.27;;;12.70;99.90;;;;;;10255337;28;20234;-77
2022/04/20 13:12:22;;;;;;;16.57;9.47;;;12.70;99.90;;;;;;10266475;28;20290;-77
2022/04/20 13:17:25;;;;;;;10.80;7.63;;;12.60;99.90;;;;;;10263444;28;20315;-78
2022/04/20 13:22:27;;;;;;;9.30;6.87;;;14.00;99.90;;;;;;10289733;28;20237;-77
2022/04/20 13:32:57;;;;;;;9.43;7.17;;;12.70;99.90;;;;;;10289457;28;20677;-77
2022/04/20 13:37:59;;;;;;;15.83;11.97;;;13.50;99.90;;;;;;10283429;28;20240;-77
2022/04/20 13:43:01;;;;;;;17.27;12.67;;;9.80;99.90;;;;;;10247668;28;20246;-77
2022/04/20 13:48:04;;;;;;;12.73;10.30;;;8.70;99.90;;;;;;10271321;28;20303;-77
2022/04/20 13:53:08;;;;;;;15.43;11.07;;;9.10;99.90;;;;;;10264842;28;20265;-76
2022/04/20 13:58:10;;;;;;;18.17;11.53;;;9.90;99.90;;;;;;10286490;28;20740;-78
2022/04/20 14:03:13;;;;;;;10.17;7.07;;;10.40;99.90;;;;;;10284624;28;20264;-78
2022/04/20 14:08:15;;;;;;;18.83;10.97;;;11.30;99.90;;;;;;10264623;28;20672;-78
2022/04/20 14:13:18;;;;;;;16.33;9.70;;;10.90;99.90;;;;;;10275822;28;20261;-79
2022/04/20 14:18:20;;;;;;;12.40;9.50;;;10.70;99.90;;;;;;10256700;28;20688;-78
2022/04/20 14:23:23;;;;;;;12.80;9.27;;;11.20;99.90;;;;;;10259787;28;20237;-78
2022/04/20 14:33:46;;;;;;;10.10;8.73;;;11.50;99.90;;;;;;10277494;28;20729;-78
2022/04/20 14:38:49;;;;;;;7.30;5.30;;;12.00;99.90;;;;;;10296063;28;20240;-78
2022/04/20 14:43:51;;;;;;;15.63;10.37;;;12.00;99.90;;;;;;10288686;28;20639;-77
2022/04/20 14:48:55;;;;;;;11.17;9.67;;;11.40;99.90;;;;;;10277352;28;20241;-77
2022/04/20 14:53:57;;;;;;;14.37;7.87;;;11.20;99.90;;;;;;10291046;28;20325;-78
2022/04/20 14:59:00;;;;;;;13.93;10.17;;;12.50;99.90;;;;;;10284219;28;20246;-77
2022/04/20 15:04:03;;;;;;;15.57;10.27;;;13.10;99.90;;;;;;10254484;28;20262;-77
2022/04/20 15:09:08;;;;;;;13.37;9.27;;;12.90;99.90;;;;;;10271805;28;20241;-77
2022/04/20 15:14:11;;;;;;;23.33;13.67;;;12.90;99.90;;;;;;10264376;28;20308;-78
2022/04/20 15:19:16;;;;;;;28.97;19.40;;;12.20;99.90;;;;;;10283367;28;20290;-77
2022/04/20 15:24:18;;;;;;;22.40;16.37;;;9.10;99.90;;;;;;10349936;23;20287;-78
2022/04/20 15:29:21;;;;;;;35.80;18.53;;;8.80;99.90;;;;;;10321507;28;20585;-77
2022/04/20 15:34:23;;;;;;;25.40;14.67;;;8.90;99.90;;;;;;10324801;28;20260;-77
2022/04/20 15:39:26;;;;;;;18.57;10.70;;;9.90;99.90;;;;;;10327073;28;20226;-78
2022/04/20 15:44:49;;;;;;;22.37;13.40;;;10.30;99.90;;;;;;10331151;28;20298;-78
2022/04/20 15:49:51;;;;;;;31.63;20.47;;;10.80;99.90;;;;;;10322700;28;20279;-78
2022/04/20 16:00:17;;;;;;;28.10;20.53;;;11.70;99.90;;;;;;10322187;28;20594;-79
2022/04/20 16:05:24;;;;;;;27.10;17.07;;;11.10;99.90;;;;;;10292552;28;20213;-79
2022/04/20 16:10:26;;;;;;;20.70;14.80;;;11.50;99.90;;;;;;10328726;28;20237;-79
2022/04/20 16:15:29;;;;;;;13.63;10.10;;;10.70;99.90;;;;;;10330200;28;20287;-78
2022/04/20 16:20:31;;;;;;;23.63;13.67;;;10.80;99.90;;;;;;10309377;28;20271;-78
2022/04/20 16:25:34;;;;;;;20.20;12.50;;;10.90;99.90;;;;;;10303494;28;20234;-78
2022/04/20 16:30:37;;;;;;;15.23;12.17;;;11.10;99.90;;;;;;10292556;28;20228;-78
2022/04/20 16:35:40;;;;;;;13.07;10.93;;;11.10;99.90;;;;;;10305896;28;20311;-79
2022/04/20 16:40:44;;;;;;;38.57;17.17;;;11.40;99.90;;;;;;10303536;28;20272;-79
2022/04/20 16:45:47;;;;;;;24.83;14.27;;;11.50;99.90;;;;;;10296583;28;20236;-79
2022/04/20 16:50:49;;;;;;;18.10;10.50;;;12.00;99.90;;;;;;10277609;28;20293;-79
2022/04/20 16:55:52;;;;;;;17.97;10.93;;;12.00;99.90;;;;;;10244101;28;20356;-79
2022/04/20 17:00:54;;;;;;;36.57;23.17;;;12.90;99.90;;;;;;10255644;28;20793;-79
2022/04/20 17:05:57;;;;;;;20.43;12.70;;;11.80;99.90;;;;;;10289516;28;20273;-78
2022/04/20 17:10:59;;;;;;;26.17;14.57;;;11.40;99.90;;;;;;9917631;28;10000411;-79
2022/04/20 17:16:02;;;;;;;24.77;16.33;;;11.80;99.90;;;;;;10265582;28;20246;-79
2022/04/20 17:26:35;;;;;;;37.67;19.30;;;11.00;99.90;;;;;;10273396;28;20256;-78
2022/04/20 17:31:40;;;;;;;14.13;8.37;;;10.90;99.90;;;;;;10283961;28;20307;-79
2022/04/20 17:36:45;;;;;;;26.73;15.47;;;11.10;99.90;;;;;;10257576;28;20292;-79
2022/04/20 17:41:50;;;;;;;24.93;15.90;;;11.50;99.90;;;;;;10247818;28;20269;-79
2022/04/20 17:46:54;;;;;;;25.50;16.83;;;11.40;99.90;;;;;;10238185;29;20278;-79
2022/04/20 17:51:57;;;;;;;22.07;14.97;;;10.90;99.90;;;;;;10263008;28;20277;-79
2022/04/20 17:56:59;;;;;;;20.63;15.27;;;10.70;99.90;;;;;;10241691;28;20294;-78
2022/04/20 18:02:02;;;;;;;18.97;14.93;;;10.60;99.90;;;;;;10277026;28;20684;-79
2022/04/20 18:07:05;;;;;;;19.17;14.47;;;10.60;99.90;;;;;;10282343;28;20762;-79
2022/04/20 18:12:08;;;;;;;21.20;15.80;;;10.50;99.90;;;;;;10265160;28;20249;-79
2022/04/20 18:17:11;;;;;;;23.47;14.63;;;10.50;99.90;;;;;;10246909;28;20265;-78
2022/04/20 18:22:13;;;;;;;29.53;18.40;;;10.60;99.90;;;;;;10288503;28;20289;-78
2022/04/20 18:27:16;;;;;;;25.47;14.80;;;11.80;99.90;;;;;;10296448;28;20244;-78
2022/04/20 18:32:19;;;;;;;26.07;17.40;;;11.70;99.90;;;;;;10292389;28;20237;-78
2022/04/20 18:37:21;;;;;;;79.17;33.10;;;11.90;99.90;;;;;;10289922;28;20269;-78
2022/04/20 18:42:24;;;;;;;23.33;16.57;;;11.60;99.90;;;;;;10293359;28;20292;-78
2022/04/20 18:47:29;;;;;;;23.23;16.73;;;11.60;99.90;;;;;;10301303;28;20717;-78
2022/04/20 18:57:58;;;;;;;17.73;14.73;;;11.20;99.90;;;;;;10321743;28;20671;-79
2022/04/20 19:03:00;;;;;;;21.23;16.93;;;11.30;99.90;;;;;;10314509;28;20249;-79
2022/04/20 19:08:04;;;;;;;20.93;13.67;;;11.30;99.90;;;;;;10272419;28;20241;-78
2022/04/20 19:13:08;;;;;;;26.07;17.33;;;11.20;99.90;;;;;;10452103;23;20265;-77
2022/04/20 19:18:10;;;;;;;25.03;17.40;;;11.00;99.90;;;;;;10289727;28;20316;-77
2022/04/20 19:23:14;;;;;;;33.73;22.90;;;11.30;99.90;;;;;;10289657;28;20283;-78
2022/04/20 19:28:17;;;;;;;30.63;20.53;;;9.80;99.90;;;;;;10290817;28;20706;-78
2022/04/20 19:33:20;;;;;;;19.23;13.80;;;10.40;99.90;;;;;;10266579;28;20285;-78
2022/04/20 19:38:22;;;;;;;13.90;11.23;;;10.60;99.90;;;;;;10257933;28;20640;-78
2022/04/20 19:43:25;;;;;;;20.93;15.73;;;10.30;99.90;;;;;;10282908;28;20272;-78
2022/04/20 19:48:28;;;;;;;17.90;13.37;;;9.70;99.90;;;;;;10251215;29;20217;-78
2022/04/20 19:53:30;;;;;;;20.00;15.33;;;9.70;99.90;;;;;;10271576;28;20243;-78
2022/04/20 19:58:33;;;;;;;21.87;14.57;;;9.50;99.90;;;;;;10287779;28;20285;-78
2022/04/20 20:03:36;;;;;;;26.43;16.00;;;10.00;99.90;;;;;;10252535;28;20244;-78
2022/04/20 20:08:41;;;;;;;14.50;10.43;;;9.60;99.90;;;;;;10280224;28;20242;-78
2022/04/20 20:13:46;;;;;;;9.80;8.47;;;10.60;99.90;;;;;;10289280;28;20257;-78
2022/04/20 20:18:48;;;;;;;15.17;11.83;;;10.20;99.90;;;;;;10290412;28;20588;-78
2022/04/20 20:34:35;;;;;;;16.97;11.80;;;10.50;99.90;;;;;;10284874;28;20646;-78
2022/04/20 20:39:38;;;;;;;17.43;13.63;;;10.50;99.90;;;;;;10290524;28;20241;-78
2022/04/20 20:44:41;;;;;;;20.87;14.97;;;10.30;99.90;;;;;;10252494;28;20277;-78
2022/04/20 20:55:11;;;;;;;7.97;6.87;;;10.60;99.90;;;;;;10266795;28;20261;-78
2022/04/20 21:00:14;;;;;;;18.10;14.53;;;12.30;99.90;;;;;;10263398;28;20264;-77
2022/04/20 21:05:17;;;;;;;15.40;12.30;;;11.60;99.90;;;;;;10289515;28;20729;-78
2022/04/20 21:10:19;;;;;;;18.33;14.20;;;11.90;99.90;;;;;;10302274;28;20214;-81
2022/04/20 21:15:21;;;;;;;15.87;12.93;;;11.50;99.90;;;;;;10272773;28;20332;-78
2022/04/20 21:20:24;;;;;;;15.00;11.23;;;11.50;99.90;;;;;;10286709;28;20265;-78
2022/04/20 21:25:28;;;;;;;17.90;14.07;;;11.40;99.90;;;;;;10284897;28;20284;-78
2022/04/20 21:30:32;;;;;;;20.17;14.90;;;11.10;99.90;;;;;;10247776;28;20241;-77
2022/04/20 21:35:34;;;;;;;18.47;14.93;;;10.50;99.90;;;;;;10275070;28;20250;-77
2022/04/20 21:40:55;;;;;;;7.80;7.00;;;10.30;99.90;;;;;;10262953;28;20695;-77
2022/04/20 21:45:59;;;;;;;18.07;13.80;;;10.30;99.90;;;;;;10249567;28;20320;-78
2022/04/20 21:51:02;;;;;;;20.03;13.87;;;10.60;99.90;;;;;;10267259;28;20233;-77
2022/04/20 21:56:06;;;;;;;21.77;16.80;;;11.30;99.90;;;;;;10271591;28;20253;-76
2022/04/20 22:01:10;;;;;;;25.00;17.70;;;11.10;99.90;;;;;;10283536;28;20687;-76
2022/04/20 22:11:57;;;;;;;19.97;16.13;;;10.10;99.90;;;;;;10284105;28;20288;-77
2022/04/20 22:17:03;;;;;;;29.63;15.87;;;9.80;99.90;;;;;;10285766;28;20276;-77
2022/04/20 22:22:07;;;;;;;11.43;8.60;;;10.10;99.90;;;;;;10287133;28;20730;-77
2022/04/20 22:27:10;;;;;;;16.17;12.17;;;10.90;99.90;;;;;;10286021;28;20643;-77
2022/04/20 22:32:12;;;;;;;16.33;11.47;;;11.10;99.90;;;;;;10270061;28;20201;-77
2022/04/20 22:37:15;;;;;;;18.23;13.63;;;11.10;99.90;;;;;;10287058;28;20683;-77
2022/04/20 22:42:18;;;;;;;28.07;18.63;;;11.00;99.90;;;;;;10285253;28;20249;-78
2022/04/20 22:47:22;;;;;;;15.37;11.53;;;10.80;99.90;;;;;;10273932;28;20280;-78
2022/04/20 22:52:24;;;;;;;16.07;11.47;;;11.80;99.90;;;;;;10290529;28;20288;-78
2022/04/20 22:57:27;;;;;;;24.87;18.87;;;10.80;99.90;;;;;;10293546;28;20257;-78
2022/04/20 23:02:29;;;;;;;24.00;15.80;;;10.50;99.90;;;;;;10264676;28;20245;-78
2022/04/20 23:07:32;;;;;;;25.47;18.03;;;10.70;99.90;;;;;;10255290;28;20293;-78
2022/04/20 23:12:34;;;;;;;26.47;18.27;;;10.80;99.90;;;;;;10291289;28;20718;-78
2022/04/20 23:17:36;;;;;;;35.37;20.17;;;10.20;99.90;;;;;;10272892;28;20273;-78
2022/04/20 23:22:39;;;;;;;40.00;22.90;;;9.90;99.90;;;;;;10256323;28;20665;-78
2022/04/20 23:33:04;;;;;;;38.37;22.10;;;9.90;99.90;;;;;;10293055;28;20303;-78
2022/04/20 23:38:06;;;;;;;42.10;22.47;;;9.80;99.90;;;;;;10305565;28;20725;-78
2022/04/20 23:43:09;;;;;;;34.63;21.43;;;9.90;99.90;;;;;;10292961;28;20279;-78
2022/04/20 23:48:12;;;;;;;20.07;11.40;;;9.30;99.90;;;;;;10305495;28;20248;-78
2022/04/20 23:53:20;;;;;;;38.63;23.43;;;9.60;99.90;;;;;;10293275;28;20307;-78
2022/04/20 23:58:22;;;;;;;37.07;22.73;;;9.60;99.90;;;;;;10250058;28;20267;-79
